sensor_id;sensor_type;location;lat;lon;timestamp;temperature;humidity
6863;DHT22;3470;48.738;9.616;2022-09-14T00:01:33;19.70;94.80
6863;DHT22;3470;48.738;9.616;2022-09-14T00:04:02;19.70;94.80
6863;DHT22;3470;48.738;9.616;2022-09-14T00:06:29;19.70;94.80
6863;DHT22;3470;48.738;9.616;2022-09-14T00:08:56;19.80;94.60
6863;DHT22;3470;48.738;9.616;2022-09-14T00:11:24;19.80;94.80
6863;DHT22;3470;48.738;9.616;2022-09-14T00:13:50;19.80;94.90
6863;DHT22;3470;48.738;9.616;2022-09-14T00:16:21;19.70;94.90
6863;DHT22;3470;48.738;9.616;2022-09-14T00:18:57;19.70;94.80
6863;DHT22;3470;48.738;9.616;2022-09-14T00:21:25;19.70;94.70
6863;DHT22;3470;48.738;9.616;2022-09-14T00:23:51;19.80;94.70
6863;DHT22;3470;48.738;9.616;2022-09-14T00:26:19;19.80;94.80
6863;DHT22;3470;48.738;9.616;2022-09-14T00:28:52;19.80;94.90
6863;DHT22;3470;48.738;9.616;2022-09-14T00:31:18;19.80;94.80
6863;DHT22;3470;48.738;9.616;2022-09-14T00:33:46;19.80;94.70
6863;DHT22;3470;48.738;9.616;2022-09-14T00:36:15;19.80;95.00
6863;DHT22;3470;48.738;9.616;2022-09-14T00:38:42;19.70;95.20
6863;DHT22;3470;48.738;9.616;2022-09-14T00:41:17;19.70;95.20
6863;DHT22;3470;48.738;9.616;2022-09-14T00:44:01;19.70;95.50
6863;DHT22;3470;48.738;9.616;2022-09-14T00:46:30;19.60;95.70
6863;DHT22;3470;48.738;9.616;2022-09-14T00:48:58;19.50;95.80
6863;DHT22;3470;48.738;9.616;2022-09-14T00:51:25;19.50;96.20
6863;DHT22;3470;48.738;9.616;2022-09-14T00:53:52;19.40;96.40
6863;DHT22;3470;48.738;9.616;2022-09-14T00:56:18;19.40;96.40
6863;DHT22;3470;48.738;9.616;2022-09-14T00:58:45;19.50;96.30
6863;DHT22;3470;48.738;9.616;2022-09-14T01:01:12;19.50;96.40
6863;DHT22;3470;48.738;9.616;2022-09-14T01:03:38;19.50;96.30
6863;DHT22;3470;48.738;9.616;2022-09-14T01:06:06;19.50;96.30
6863;DHT22;3470;48.738;9.616;2022-09-14T01:11:38;19.50;96.40
6863;DHT22;3470;48.738;9.616;2022-09-14T01:23:12;19.50;96.60
6863;DHT22;3470;48.738;9.616;2022-09-14T01:28:42;19.50;96.80
6863;DHT22;3470;48.738;9.616;2022-09-14T01:31:17;19.40;96.90
6863;DHT22;3470;48.738;9.616;2022-09-14T01:33:52;19.40;97.10
6863;DHT22;3470;48.738;9.616;2022-09-14T01:36:20;19.40;97.40
6863;DHT22;3470;48.738;9.616;2022-09-14T01:38:50;19.40;97.50
6863;DHT22;3470;48.738;9.616;2022-09-14T01:41:19;19.40;97.50
6863;DHT22;3470;48.738;9.616;2022-09-14T01:43:57;19.40;97.40
6863;DHT22;3470;48.738;9.616;2022-09-14T01:46:43;19.30;97.70
6863;DHT22;3470;48.738;9.616;2022-09-14T01:49:26;19.30;98.20
6863;DHT22;3470;48.738;9.616;2022-09-14T01:51:59;19.00;99.90
6863;DHT22;3470;48.738;9.616;2022-09-14T01:54:32;17.50;99.90
6863;DHT22;3470;48.738;9.616;2022-09-14T01:57:03;17.00;99.90
6863;DHT22;3470;48.738;9.616;2022-09-14T01:59:41;16.90;99.90
6863;DHT22;3470;48.738;9.616;2022-09-14T02:02:24;16.70;99.90
6863;DHT22;3470;48.738;9.616;2022-09-14T02:04:53;16.70;99.90
6863;DHT22;3470;48.738;9.616;2022-09-14T02:07:22;16.80;99.90
6863;DHT22;3470;48.738;9.616;2022-09-14T02:09:49;16.80;99.90
6863;DHT22;3470;48.738;9.616;2022-09-14T02:12:17;16.80;99.90
6863;DHT22;3470;48.738;9.616;2022-09-14T02:14:43;16.70;99.90
6863;DHT22;3470;48.738;9.616;2022-09-14T02:17:09;16.80;99.90
6863;DHT22;3470;48.738;9.616;2022-09-14T02:19:43;16.80;99.90
6863;DHT22;3470;48.738;9.616;2022-09-14T02:22:11;16.70;99.90
6863;DHT22;3470;48.738;9.616;2022-09-14T02:24:38;16.70;99.90
6863;DHT22;3470;48.738;9.616;2022-09-14T02:27:05;16.70;99.90
6863;DHT22;3470;48.738;9.616;2022-09-14T02:29:31;16.70;99.90
6863;DHT22;3470;48.738;9.616;2022-09-14T02:51:30;16.80;99.90
6863;DHT22;3470;48.738;9.616;2022-09-14T02:54:16;16.80;99.90
6863;DHT22;3470;48.738;9.616;2022-09-14T02:56:43;16.80;99.90
6863;DHT22;3470;48.738;9.616;2022-09-14T02:59:09;16.80;99.90
6863;DHT22;3470;48.738;9.616;2022-09-14T03:01:35;16.80;99.90
6863;DHT22;3470;48.738;9.616;2022-09-14T03:04:01;16.80;99.90
6863;DHT22;3470;48.738;9.616;2022-09-14T03:06:27;16.80;99.90
6863;DHT22;3470;48.738;9.616;2022-09-14T03:08:52;16.80;99.90
6863;DHT22;3470;48.738;9.616;2022-09-14T03:11:18;16.80;99.90
6863;DHT22;3470;48.738;9.616;2022-09-14T03:13:44;16.80;99.90
6863;DHT22;3470;48.738;9.616;2022-09-14T03:16:14;16.80;99.90
6863;DHT22;3470;48.738;9.616;2022-09-14T03:18:40;16.80;99.90
6863;DHT22;3470;48.738;9.616;2022-09-14T03:21:11;16.80;99.90
6863;DHT22;3470;48.738;9.616;2022-09-14T03:23:39;16.80;99.90
6863;DHT22;3470;48.738;9.616;2022-09-14T03:26:08;16.80;99.90
6863;DHT22;3470;48.738;9.616;2022-09-14T03:28:33;16.80;99.90
6863;DHT22;3470;48.738;9.616;2022-09-14T03:31:00;16.80;99.90
6863;DHT22;3470;48.738;9.616;2022-09-14T03:33:26;16.90;99.90
6863;DHT22;3470;48.738;9.616;2022-09-14T03:35:51;16.90;99.90
6863;DHT22;3470;48.738;9.616;2022-09-14T03:38:17;16.80;99.90
6863;DHT22;3470;48.738;9.616;2022-09-14T03:40:43;16.80;99.90
6863;DHT22;3470;48.738;9.616;2022-09-14T03:43:09;16.90;99.90
6863;DHT22;3470;48.738;9.616;2022-09-14T03:45:37;16.80;99.90
6863;DHT22;3470;48.738;9.616;2022-09-14T03:48:02;16.80;99.90
6863;DHT22;3470;48.738;9.616;2022-09-14T03:50:30;16.90;99.90
6863;DHT22;3470;48.738;9.616;2022-09-14T03:52:56;16.80;99.90
6863;DHT22;3470;48.738;9.616;2022-09-14T03:55:21;16.80;99.90
6863;DHT22;3470;48.738;9.616;2022-09-14T03:57:47;16.80;99.90
6863;DHT22;3470;48.738;9.616;2022-09-14T04:00:12;16.90;99.90
6863;DHT22;3470;48.738;9.616;2022-09-14T04:02:39;16.90;99.90
6863;DHT22;3470;48.738;9.616;2022-09-14T04:05:05;16.80;99.90
6863;DHT22;3470;48.738;9.616;2022-09-14T04:07:31;16.90;99.90
6863;DHT22;3470;48.738;9.616;2022-09-14T04:09:57;16.90;99.90
6863;DHT22;3470;48.738;9.616;2022-09-14T04:12:23;16.90;99.90
6863;DHT22;3470;48.738;9.616;2022-09-14T04:14:48;16.80;99.90
6863;DHT22;3470;48.738;9.616;2022-09-14T04:17:14;16.80;99.90
6863;DHT22;3470;48.738;9.616;2022-09-14T04:19:39;16.80;99.90
6863;DHT22;3470;48.738;9.616;2022-09-14T04:22:06;16.80;99.90
6863;DHT22;3470;48.738;9.616;2022-09-14T04:24:32;16.80;99.90
6863;DHT22;3470;48.738;9.616;2022-09-14T04:26:58;16.80;99.90
6863;DHT22;3470;48.738;9.616;2022-09-14T04:29:23;16.90;99.90
6863;DHT22;3470;48.738;9.616;2022-09-14T04:31:49;16.90;99.90
6863;DHT22;3470;48.738;9.616;2022-09-14T04:34:14;16.80;99.90
6863;DHT22;3470;48.738;9.616;2022-09-14T04:36:40;16.80;99.90
6863;DHT22;3470;48.738;9.616;2022-09-14T04:39:06;16.90;99.90
6863;DHT22;3470;48.738;9.616;2022-09-14T04:41:31;16.80;99.90
6863;DHT22;3470;48.738;9.616;2022-09-14T04:43:57;16.80;99.90
6863;DHT22;3470;48.738;9.616;2022-09-14T04:46:29;16.80;99.90
6863;DHT22;3470;48.738;9.616;2022-09-14T04:48:55;16.80;99.90
6863;DHT22;3470;48.738;9.616;2022-09-14T04:51:24;16.80;99.90
6863;DHT22;3470;48.738;9.616;2022-09-14T04:53:51;16.80;99.90
6863;DHT22;3470;48.738;9.616;2022-09-14T04:56:19;16.80;99.90
6863;DHT22;3470;48.738;9.616;2022-09-14T04:58:48;16.90;99.90
6863;DHT22;3470;48.738;9.616;2022-09-14T05:01:16;16.90;99.90
6863;DHT22;3470;48.738;9.616;2022-09-14T05:03:43;16.90;99.90
6863;DHT22;3470;48.738;9.616;2022-09-14T05:06:11;16.90;99.90
6863;DHT22;3470;48.738;9.616;2022-09-14T05:08:37;16.90;99.90
6863;DHT22;3470;48.738;9.616;2022-09-14T05:11:07;16.90;99.90
6863;DHT22;3470;48.738;9.616;2022-09-14T05:13:33;16.90;99.90
6863;DHT22;3470;48.738;9.616;2022-09-14T05:18:35;17.00;99.90
6863;DHT22;3470;48.738;9.616;2022-09-14T05:21:06;17.00;99.90
6863;DHT22;3470;48.738;9.616;2022-09-14T05:23:32;17.10;99.90
6863;DHT22;3470;48.738;9.616;2022-09-14T05:25:58;17.10;99.90
6863;DHT22;3470;48.738;9.616;2022-09-14T05:28:24;17.10;99.90
6863;DHT22;3470;48.738;9.616;2022-09-14T05:30:50;17.10;99.90
6863;DHT22;3470;48.738;9.616;2022-09-14T05:33:15;17.20;99.90
6863;DHT22;3470;48.738;9.616;2022-09-14T05:35:41;17.20;99.90
6863;DHT22;3470;48.738;9.616;2022-09-14T05:38:07;17.20;99.90
6863;DHT22;3470;48.738;9.616;2022-09-14T05:40:32;17.20;99.90
6863;DHT22;3470;48.738;9.616;2022-09-14T05:42:58;17.20;99.90
6863;DHT22;3470;48.738;9.616;2022-09-14T05:45:23;17.30;99.90
6863;DHT22;3470;48.738;9.616;2022-09-14T05:47:49;17.30;99.90
6863;DHT22;3470;48.738;9.616;2022-09-14T05:50:14;17.30;99.90
6863;DHT22;3470;48.738;9.616;2022-09-14T05:52:40;17.40;99.90
6863;DHT22;3470;48.738;9.616;2022-09-14T05:55:06;17.40;99.90
6863;DHT22;3470;48.738;9.616;2022-09-14T05:57:32;17.40;99.90
6863;DHT22;3470;48.738;9.616;2022-09-14T05:59:57;17.40;99.90
6863;DHT22;3470;48.738;9.616;2022-09-14T06:02:23;17.50;99.90
6863;DHT22;3470;48.738;9.616;2022-09-14T06:04:49;17.60;99.90
6863;DHT22;3470;48.738;9.616;2022-09-14T06:07:15;17.60;99.90
6863;DHT22;3470;48.738;9.616;2022-09-14T06:09:41;17.70;99.90
6863;DHT22;3470;48.738;9.616;2022-09-14T06:12:07;17.70;99.90
6863;DHT22;3470;48.738;9.616;2022-09-14T06:14:33;17.80;99.90
6863;DHT22;3470;48.738;9.616;2022-09-14T06:16:59;17.80;99.90
6863;DHT22;3470;48.738;9.616;2022-09-14T06:19:25;17.90;99.90
6863;DHT22;3470;48.738;9.616;2022-09-14T06:21:50;18.00;99.90
6863;DHT22;3470;48.738;9.616;2022-09-14T06:24:16;18.10;99.90
6863;DHT22;3470;48.738;9.616;2022-09-14T06:26:41;18.30;99.90
6863;DHT22;3470;48.738;9.616;2022-09-14T06:29:07;18.40;99.90
6863;DHT22;3470;48.738;9.616;2022-09-14T06:31:33;18.50;99.90
6863;DHT22;3470;48.738;9.616;2022-09-14T06:33:58;18.70;99.90
6863;DHT22;3470;48.738;9.616;2022-09-14T06:36:26;18.90;99.90
6863;DHT22;3470;48.738;9.616;2022-09-14T06:38:52;19.00;99.90
6863;DHT22;3470;48.738;9.616;2022-09-14T06:41:21;18.90;99.90
6863;DHT22;3470;48.738;9.616;2022-09-14T06:43:48;19.00;99.90
6863;DHT22;3470;48.738;9.616;2022-09-14T06:46:16;19.00;99.90
6863;DHT22;3470;48.738;9.616;2022-09-14T06:48:47;19.00;99.90
6863;DHT22;3470;48.738;9.616;2022-09-14T06:51:17;19.00;99.90
6863;DHT22;3470;48.738;9.616;2022-09-14T06:53:43;19.20;99.90
6863;DHT22;3470;48.738;9.616;2022-09-14T06:56:10;19.20;99.90
6863;DHT22;3470;48.738;9.616;2022-09-14T06:58:36;19.10;99.90
6863;DHT22;3470;48.738;9.616;2022-09-14T07:01:08;18.90;99.90
6863;DHT22;3470;48.738;9.616;2022-09-14T07:03:36;18.80;99.90
6863;DHT22;3470;48.738;9.616;2022-09-14T07:08:33;18.80;99.90
6863;DHT22;3470;48.738;9.616;2022-09-14T07:10:59;18.80;99.90
6863;DHT22;3470;48.738;9.616;2022-09-14T07:13:25;19.00;99.90
6863;DHT22;3470;48.738;9.616;2022-09-14T07:15:51;19.00;99.90
6863;DHT22;3470;48.738;9.616;2022-09-14T07:18:17;19.10;99.90
6863;DHT22;3470;48.738;9.616;2022-09-14T07:20:42;19.30;99.90
6863;DHT22;3470;48.738;9.616;2022-09-14T07:23:08;19.30;99.90
6863;DHT22;3470;48.738;9.616;2022-09-14T07:25:34;19.20;99.90
6863;DHT22;3470;48.738;9.616;2022-09-14T07:28:00;19.20;99.90
6863;DHT22;3470;48.738;9.616;2022-09-14T07:30:26;19.20;99.90
6863;DHT22;3470;48.738;9.616;2022-09-14T07:32:53;19.10;99.90
6863;DHT22;3470;48.738;9.616;2022-09-14T07:35:19;19.20;99.90
6863;DHT22;3470;48.738;9.616;2022-09-14T07:37:44;19.30;99.90
6863;DHT22;3470;48.738;9.616;2022-09-14T07:40:10;19.50;99.90
6863;DHT22;3470;48.738;9.616;2022-09-14T07:42:36;19.80;99.90
6863;DHT22;3470;48.738;9.616;2022-09-14T07:45:03;20.40;99.90
6863;DHT22;3470;48.738;9.616;2022-09-14T07:47:29;20.80;99.90
6863;DHT22;3470;48.738;9.616;2022-09-14T07:49:54;21.00;99.90
6863;DHT22;3470;48.738;9.616;2022-09-14T07:52:20;21.40;99.90
6863;DHT22;3470;48.738;9.616;2022-09-14T07:54:46;21.60;99.90
6863;DHT22;3470;48.738;9.616;2022-09-14T07:57:11;21.60;99.90
6863;DHT22;3470;48.738;9.616;2022-09-14T07:59:37;21.60;99.90
6863;DHT22;3470;48.738;9.616;2022-09-14T08:02:05;22.10;99.90
6863;DHT22;3470;48.738;9.616;2022-09-14T08:04:33;22.80;99.90
6863;DHT22;3470;48.738;9.616;2022-09-14T08:07:00;23.50;99.90
6863;DHT22;3470;48.738;9.616;2022-09-14T08:09:26;24.20;99.90
6863;DHT22;3470;48.738;9.616;2022-09-14T08:11:52;24.20;99.90
6863;DHT22;3470;48.738;9.616;2022-09-14T08:14:18;24.50;99.90
6863;DHT22;3470;48.738;9.616;2022-09-14T08:16:43;25.00;99.90
6863;DHT22;3470;48.738;9.616;2022-09-14T08:19:14;25.60;99.90
6863;DHT22;3470;48.738;9.616;2022-09-14T08:21:42;26.10;99.90
6863;DHT22;3470;48.738;9.616;2022-09-14T08:24:10;26.60;99.90
6863;DHT22;3470;48.738;9.616;2022-09-14T08:26:36;25.80;99.90
6863;DHT22;3470;48.738;9.616;2022-09-14T08:29:02;24.90;99.90
6863;DHT22;3470;48.738;9.616;2022-09-14T08:31:29;24.90;99.90
6863;DHT22;3470;48.738;9.616;2022-09-14T08:34:00;24.80;99.90
6863;DHT22;3470;48.738;9.616;2022-09-14T08:36:30;25.00;99.90
6863;DHT22;3470;48.738;9.616;2022-09-14T08:38:56;24.20;99.90
6863;DHT22;3470;48.738;9.616;2022-09-14T08:44:27;23.10;99.90
6863;DHT22;3470;48.738;9.616;2022-09-14T08:47:00;22.70;99.90
6863;DHT22;3470;48.738;9.616;2022-09-14T08:52:04;22.30;99.90
6863;DHT22;3470;48.738;9.616;2022-09-14T08:54:30;22.10;99.90
6863;DHT22;3470;48.738;9.616;2022-09-14T08:57:06;21.90;99.90
6863;DHT22;3470;48.738;9.616;2022-09-14T09:05:52;21.80;99.90
6863;DHT22;3470;48.738;9.616;2022-09-14T09:08:26;21.70;99.90
6863;DHT22;3470;48.738;9.616;2022-09-14T09:10:54;21.60;99.90
6863;DHT22;3470;48.738;9.616;2022-09-14T09:13:22;21.90;99.90
6863;DHT22;3470;48.738;9.616;2022-09-14T09:15:54;22.40;99.90
6863;DHT22;3470;48.738;9.616;2022-09-14T09:18:41;23.30;99.90
6863;DHT22;3470;48.738;9.616;2022-09-14T09:23:37;27.30;99.90
6863;DHT22;3470;48.738;9.616;2022-09-14T09:26:27;28.60;99.90
6863;DHT22;3470;48.738;9.616;2022-09-14T09:28:57;29.50;99.90
6863;DHT22;3470;48.738;9.616;2022-09-14T09:31:33;30.20;99.90
6863;DHT22;3470;48.738;9.616;2022-09-14T09:34:00;30.30;98.40
6863;DHT22;3470;48.738;9.616;2022-09-14T09:36:32;30.40;96.90
6863;DHT22;3470;48.738;9.616;2022-09-14T09:38:59;31.20;95.60
6863;DHT22;3470;48.738;9.616;2022-09-14T09:41:30;30.80;95.20
6863;DHT22;3470;48.738;9.616;2022-09-14T09:43:59;30.30;95.30
6863;DHT22;3470;48.738;9.616;2022-09-14T09:46:30;29.80;96.00
6863;DHT22;3470;48.738;9.616;2022-09-14T09:48:56;30.40;94.20
6863;DHT22;3470;48.738;9.616;2022-09-14T09:56:24;30.90;92.00
6863;DHT22;3470;48.738;9.616;2022-09-14T09:58:51;30.90;92.50
6863;DHT22;3470;48.738;9.616;2022-09-14T10:01:26;31.40;90.90
6863;DHT22;3470;48.738;9.616;2022-09-14T10:04:06;31.50;91.10
6863;DHT22;3470;48.738;9.616;2022-09-14T10:06:50;30.90;90.90
6863;DHT22;3470;48.738;9.616;2022-09-14T10:09:22;31.10;90.50
6863;DHT22;3470;48.738;9.616;2022-09-14T10:12:00;30.70;91.00
6863;DHT22;3470;48.738;9.616;2022-09-14T10:14:36;31.20;90.60
6863;DHT22;3470;48.738;9.616;2022-09-14T10:17:19;30.40;90.90
6863;DHT22;3470;48.738;9.616;2022-09-14T10:19:54;29.20;92.80
6863;DHT22;3470;48.738;9.616;2022-09-14T10:22:32;28.50;93.80
6863;DHT22;3470;48.738;9.616;2022-09-14T10:25:18;28.30;94.20
6863;DHT22;3470;48.738;9.616;2022-09-14T10:30:22;30.90;91.40
6863;DHT22;3470;48.738;9.616;2022-09-14T10:33:00;31.90;90.10
6863;DHT22;3470;48.738;9.616;2022-09-14T10:38:37;32.40;86.40
6863;DHT22;3470;48.738;9.616;2022-09-14T10:41:12;32.40;85.60
6863;DHT22;3470;48.738;9.616;2022-09-14T10:44:17;30.90;87.40
6863;DHT22;3470;48.738;9.616;2022-09-14T10:52:18;28.70;92.10
6863;DHT22;3470;48.738;9.616;2022-09-14T10:54:57;28.70;92.10
6863;DHT22;3470;48.738;9.616;2022-09-14T10:57:52;28.40;91.50
6863;DHT22;3470;48.738;9.616;2022-09-14T11:00:19;28.00;92.20
6863;DHT22;3470;48.738;9.616;2022-09-14T11:03:17;28.10;93.00
6863;DHT22;3470;48.738;9.616;2022-09-14T11:06:03;27.80;92.90
6863;DHT22;3470;48.738;9.616;2022-09-14T11:08:35;27.60;94.10
6863;DHT22;3470;48.738;9.616;2022-09-14T11:22:49;26.20;94.70
6863;DHT22;3470;48.738;9.616;2022-09-14T11:28:12;27.20;94.20
6863;DHT22;3470;48.738;9.616;2022-09-14T11:33:23;28.30;91.90
6863;DHT22;3470;48.738;9.616;2022-09-14T11:35:57;28.10;92.00
6863;DHT22;3470;48.738;9.616;2022-09-14T11:38:33;28.50;91.50
6863;DHT22;3470;48.738;9.616;2022-09-14T11:41:31;28.80;91.10
6863;DHT22;3470;48.738;9.616;2022-09-14T11:44:05;29.00;90.70
6863;DHT22;3470;48.738;9.616;2022-09-14T11:46:38;28.90;90.80
6863;DHT22;3470;48.738;9.616;2022-09-14T11:49:14;29.40;90.50
6863;DHT22;3470;48.738;9.616;2022-09-14T11:51:52;30.40;88.10
6863;DHT22;3470;48.738;9.616;2022-09-14T11:54:21;29.70;89.10
6863;DHT22;3470;48.738;9.616;2022-09-14T11:57:15;28.90;90.00
6863;DHT22;3470;48.738;9.616;2022-09-14T12:10:27;28.10;91.50
6863;DHT22;3470;48.738;9.616;2022-09-14T12:13:15;27.40;92.10
6863;DHT22;3470;48.738;9.616;2022-09-14T12:15:42;27.20;92.40
6863;DHT22;3470;48.738;9.616;2022-09-14T12:20:41;26.70;92.30
6863;DHT22;3470;48.738;9.616;2022-09-14T12:36:06;26.30;91.60
6863;DHT22;3470;48.738;9.616;2022-09-14T13:02:17;23.60;98.60
6863;DHT22;3470;48.738;9.616;2022-09-14T13:04:52;23.10;99.70
6863;DHT22;3470;48.738;9.616;2022-09-14T13:07:19;23.10;99.90
6863;DHT22;3470;48.738;9.616;2022-09-14T13:09:52;23.20;99.60
6863;DHT22;3470;48.738;9.616;2022-09-14T13:12:35;23.40;99.70
6863;DHT22;3470;48.738;9.616;2022-09-14T13:15:05;23.50;99.80
6863;DHT22;3470;48.738;9.616;2022-09-14T13:17:32;23.60;99.90
6863;DHT22;3470;48.738;9.616;2022-09-14T13:20:03;23.80;99.90
6863;DHT22;3470;48.738;9.616;2022-09-14T13:22:31;23.60;99.90
6863;DHT22;3470;48.738;9.616;2022-09-14T13:24:58;23.40;99.90
6863;DHT22;3470;48.738;9.616;2022-09-14T13:27:35;22.80;99.90
6863;DHT22;3470;48.738;9.616;2022-09-14T13:30:19;22.40;99.90
6863;DHT22;3470;48.738;9.616;2022-09-14T13:32:49;22.20;99.90
6863;DHT22;3470;48.738;9.616;2022-09-14T13:35:26;21.90;99.90
6863;DHT22;3470;48.738;9.616;2022-09-14T13:37:52;21.90;99.90
6863;DHT22;3470;48.738;9.616;2022-09-14T13:40:23;21.80;99.90
6863;DHT22;3470;48.738;9.616;2022-09-14T13:42:49;21.80;99.90
6863;DHT22;3470;48.738;9.616;2022-09-14T13:45:15;21.80;99.90
6863;DHT22;3470;48.738;9.616;2022-09-14T13:47:41;21.90;99.90
6863;DHT22;3470;48.738;9.616;2022-09-14T13:50:07;21.90;99.90
6863;DHT22;3470;48.738;9.616;2022-09-14T13:52:37;21.80;99.90
6863;DHT22;3470;48.738;9.616;2022-09-14T13:58:04;21.40;99.90
6863;DHT22;3470;48.738;9.616;2022-09-14T14:03:24;21.00;99.90
6863;DHT22;3470;48.738;9.616;2022-09-14T14:05:50;21.00;99.90
6863;DHT22;3470;48.738;9.616;2022-09-14T14:08:39;21.10;99.90
6863;DHT22;3470;48.738;9.616;2022-09-14T14:11:06;21.20;99.90
6863;DHT22;3470;48.738;9.616;2022-09-14T14:13:36;21.30;99.90
6863;DHT22;3470;48.738;9.616;2022-09-14T14:16:20;21.50;99.90
6863;DHT22;3470;48.738;9.616;2022-09-14T14:19:04;21.60;99.90
6863;DHT22;3470;48.738;9.616;2022-09-14T14:21:32;21.70;99.90
6863;DHT22;3470;48.738;9.616;2022-09-14T14:24:36;21.60;99.90
6863;DHT22;3470;48.738;9.616;2022-09-14T14:27:02;21.40;99.90
6863;DHT22;3470;48.738;9.616;2022-09-14T14:29:28;21.40;99.90
6863;DHT22;3470;48.738;9.616;2022-09-14T14:31:54;21.30;99.90
6863;DHT22;3470;48.738;9.616;2022-09-14T14:34:22;21.30;99.90
6863;DHT22;3470;48.738;9.616;2022-09-14T14:36:48;21.20;99.90
6863;DHT22;3470;48.738;9.616;2022-09-14T14:39:19;21.20;99.90
6863;DHT22;3470;48.738;9.616;2022-09-14T14:41:45;21.10;99.90
6863;DHT22;3470;48.738;9.616;2022-09-14T14:44:18;20.90;99.90
6863;DHT22;3470;48.738;9.616;2022-09-14T14:46:44;20.90;99.90
6863;DHT22;3470;48.738;9.616;2022-09-14T14:49:15;20.90;99.90
6863;DHT22;3470;48.738;9.616;2022-09-14T14:51:41;20.90;99.90
6863;DHT22;3470;48.738;9.616;2022-09-14T14:54:08;20.70;99.90
6863;DHT22;3470;48.738;9.616;2022-09-14T14:56:38;20.60;99.90
6863;DHT22;3470;48.738;9.616;2022-09-14T15:01:47;20.60;99.90
6863;DHT22;3470;48.738;9.616;2022-09-14T15:04:13;20.60;99.90
6863;DHT22;3470;48.738;9.616;2022-09-14T15:06:38;20.50;99.90
6863;DHT22;3470;48.738;9.616;2022-09-14T15:09:08;20.30;99.90
6863;DHT22;3470;48.738;9.616;2022-09-14T15:11:37;20.10;99.90
6863;DHT22;3470;48.738;9.616;2022-09-14T15:14:04;20.00;99.90
6863;DHT22;3470;48.738;9.616;2022-09-14T15:16:30;19.90;99.90
6863;DHT22;3470;48.738;9.616;2022-09-14T15:18:55;19.80;99.90
6863;DHT22;3470;48.738;9.616;2022-09-14T15:21:21;19.70;99.90
6863;DHT22;3470;48.738;9.616;2022-09-14T15:23:48;19.40;99.90
6863;DHT22;3470;48.738;9.616;2022-09-14T15:26:13;19.30;99.90
6863;DHT22;3470;48.738;9.616;2022-09-14T15:28:39;19.00;99.90
6863;DHT22;3470;48.738;9.616;2022-09-14T15:31:05;19.00;99.90
6863;DHT22;3470;48.738;9.616;2022-09-14T15:33:31;19.00;99.90
6863;DHT22;3470;48.738;9.616;2022-09-14T15:35:57;19.00;99.90
6863;DHT22;3470;48.738;9.616;2022-09-14T15:38:23;19.00;99.90
6863;DHT22;3470;48.738;9.616;2022-09-14T15:40:49;19.00;99.90
6863;DHT22;3470;48.738;9.616;2022-09-14T15:43:15;19.00;99.90
6863;DHT22;3470;48.738;9.616;2022-09-14T15:45:40;19.10;99.90
6863;DHT22;3470;48.738;9.616;2022-09-14T15:48:13;19.20;99.90
6863;DHT22;3470;48.738;9.616;2022-09-14T15:50:41;19.30;99.90
6863;DHT22;3470;48.738;9.616;2022-09-14T15:53:09;19.90;99.90
6863;DHT22;3470;48.738;9.616;2022-09-14T15:55:41;20.70;99.90
6863;DHT22;3470;48.738;9.616;2022-09-14T15:58:07;21.30;99.90
6863;DHT22;3470;48.738;9.616;2022-09-14T16:00:34;21.60;99.90
6863;DHT22;3470;48.738;9.616;2022-09-14T16:03:00;21.50;99.90
6863;DHT22;3470;48.738;9.616;2022-09-14T16:05:25;21.30;99.90
6863;DHT22;3470;48.738;9.616;2022-09-14T16:07:55;21.30;99.90
6863;DHT22;3470;48.738;9.616;2022-09-14T16:10:22;21.40;99.90
6863;DHT22;3470;48.738;9.616;2022-09-14T16:12:51;21.30;99.90
6863;DHT22;3470;48.738;9.616;2022-09-14T16:15:18;21.00;99.90
6863;DHT22;3470;48.738;9.616;2022-09-14T16:17:47;20.90;99.90
6863;DHT22;3470;48.738;9.616;2022-09-14T16:20:13;20.90;99.90
6863;DHT22;3470;48.738;9.616;2022-09-14T16:22:39;21.10;99.90
6863;DHT22;3470;48.738;9.616;2022-09-14T16:25:05;21.00;99.90
6863;DHT22;3470;48.738;9.616;2022-09-14T16:27:31;20.90;99.90
6863;DHT22;3470;48.738;9.616;2022-09-14T16:29:56;20.70;99.90
6863;DHT22;3470;48.738;9.616;2022-09-14T16:32:22;20.70;99.90
6863;DHT22;3470;48.738;9.616;2022-09-14T16:34:47;20.60;99.90
6863;DHT22;3470;48.738;9.616;2022-09-14T16:37:13;20.30;99.90
6863;DHT22;3470;48.738;9.616;2022-09-14T16:39:38;20.10;99.90
6863;DHT22;3470;48.738;9.616;2022-09-14T16:42:05;19.90;99.90
6863;DHT22;3470;48.738;9.616;2022-09-14T16:44:31;19.80;99.90
6863;DHT22;3470;48.738;9.616;2022-09-14T16:46:57;19.70;99.90
6863;DHT22;3470;48.738;9.616;2022-09-14T16:49:23;19.60;99.90
6863;DHT22;3470;48.738;9.616;2022-09-14T16:51:49;19.60;99.90
6863;DHT22;3470;48.738;9.616;2022-09-14T16:54:16;19.50;99.90
6863;DHT22;3470;48.738;9.616;2022-09-14T16:56:43;19.40;99.90
6863;DHT22;3470;48.738;9.616;2022-09-14T16:59:09;19.40;99.90
6863;DHT22;3470;48.738;9.616;2022-09-14T17:01:37;19.30;99.90
6863;DHT22;3470;48.738;9.616;2022-09-14T17:04:11;19.30;99.90
6863;DHT22;3470;48.738;9.616;2022-09-14T17:06:39;19.30;99.90
6863;DHT22;3470;48.738;9.616;2022-09-14T17:09:08;19.20;99.90
6863;DHT22;3470;48.738;9.616;2022-09-14T17:11:35;19.20;99.90
6863;DHT22;3470;48.738;9.616;2022-09-14T17:14:02;19.20;99.90
6863;DHT22;3470;48.738;9.616;2022-09-14T17:16:28;19.20;99.90
6863;DHT22;3470;48.738;9.616;2022-09-14T17:18:57;19.10;99.90
6863;DHT22;3470;48.738;9.616;2022-09-14T17:21:30;19.10;99.90
6863;DHT22;3470;48.738;9.616;2022-09-14T17:23:56;19.10;99.90
6863;DHT22;3470;48.738;9.616;2022-09-14T17:26:22;19.00;99.90
6863;DHT22;3470;48.738;9.616;2022-09-14T17:28:49;18.90;99.90
6863;DHT22;3470;48.738;9.616;2022-09-14T17:31:19;18.80;99.90
6863;DHT22;3470;48.738;9.616;2022-09-14T17:33:46;18.70;99.90
6863;DHT22;3470;48.738;9.616;2022-09-14T17:36:12;18.70;99.90
6863;DHT22;3470;48.738;9.616;2022-09-14T17:38:39;18.60;99.90
6863;DHT22;3470;48.738;9.616;2022-09-14T17:41:08;18.60;99.90
6863;DHT22;3470;48.738;9.616;2022-09-14T17:43:35;18.60;99.90
6863;DHT22;3470;48.738;9.616;2022-09-14T17:46:02;18.50;99.90
6863;DHT22;3470;48.738;9.616;2022-09-14T17:48:34;18.50;99.90
6863;DHT22;3470;48.738;9.616;2022-09-14T17:51:05;18.50;99.90
6863;DHT22;3470;48.738;9.616;2022-09-14T17:53:35;18.50;99.90
6863;DHT22;3470;48.738;9.616;2022-09-14T17:56:03;18.40;99.90
6863;DHT22;3470;48.738;9.616;2022-09-14T17:58:29;18.40;99.90
6863;DHT22;3470;48.738;9.616;2022-09-14T18:01:12;18.30;99.90
6863;DHT22;3470;48.738;9.616;2022-09-14T18:03:39;18.20;99.90
6863;DHT22;3470;48.738;9.616;2022-09-14T18:06:10;18.20;99.90
6863;DHT22;3470;48.738;9.616;2022-09-14T18:08:37;18.10;99.90
6863;DHT22;3470;48.738;9.616;2022-09-14T18:11:05;18.00;99.90
6863;DHT22;3470;48.738;9.616;2022-09-14T18:13:31;18.00;99.90
6863;DHT22;3470;48.738;9.616;2022-09-14T18:15:56;17.90;99.90
6863;DHT22;3470;48.738;9.616;2022-09-14T18:18:22;17.90;99.90
6863;DHT22;3470;48.738;9.616;2022-09-14T18:20:48;17.90;99.90
6863;DHT22;3470;48.738;9.616;2022-09-14T18:23:14;17.80;99.90
6863;DHT22;3470;48.738;9.616;2022-09-14T18:25:40;17.80;99.90
6863;DHT22;3470;48.738;9.616;2022-09-14T18:28:06;17.80;99.90
6863;DHT22;3470;48.738;9.616;2022-09-14T18:30:31;17.80;99.90
6863;DHT22;3470;48.738;9.616;2022-09-14T18:32:57;17.80;99.90
6863;DHT22;3470;48.738;9.616;2022-09-14T18:35:23;17.80;99.90
6863;DHT22;3470;48.738;9.616;2022-09-14T18:37:48;17.70;99.90
6863;DHT22;3470;48.738;9.616;2022-09-14T18:40:14;17.70;99.90